sensor_id;sensor_type;location;lat;lon;timestamp;temperature;humidity
8892;DHT22;4482;54.332;10.118;2022-09-12T00:00:29;12.90;99.90
8892;DHT22;4482;54.332;10.118;2022-09-12T00:02:57;12.90;99.90
8892;DHT22;4482;54.332;10.118;2022-09-12T00:05:25;12.80;99.90
8892;DHT22;4482;54.332;10.118;2022-09-12T00:07:52;12.80;99.90
8892;DHT22;4482;54.332;10.118;2022-09-12T00:10:19;12.90;99.90
8892;DHT22;4482;54.332;10.118;2022-09-12T00:12:46;12.80;99.90
8892;DHT22;4482;54.332;10.118;2022-09-12T00:15:13;12.80;99.90
8892;DHT22;4482;54.332;10.118;2022-09-12T00:17:41;12.80;99.90
8892;DHT22;4482;54.332;10.118;2022-09-12T00:20:09;12.80;99.90
8892;DHT22;4482;54.332;10.118;2022-09-12T00:22:36;12.80;99.90
8892;DHT22;4482;54.332;10.118;2022-09-12T00:25:04;12.80;99.90
8892;DHT22;4482;54.332;10.118;2022-09-12T00:27:31;12.80;99.90
8892;DHT22;4482;54.332;10.118;2022-09-12T00:29:58;12.80;99.90
8892;DHT22;4482;54.332;10.118;2022-09-12T00:32:25;12.80;99.90
8892;DHT22;4482;54.332;10.118;2022-09-12T00:34:53;12.80;99.90
8892;DHT22;4482;54.332;10.118;2022-09-12T00:37:20;12.80;99.90
8892;DHT22;4482;54.332;10.118;2022-09-12T00:39:47;12.70;99.90
8892;DHT22;4482;54.332;10.118;2022-09-12T00:42:13;12.70;99.90
8892;DHT22;4482;54.332;10.118;2022-09-12T00:44:46;12.70;99.90
8892;DHT22;4482;54.332;10.118;2022-09-12T00:47:18;12.70;99.90
8892;DHT22;4482;54.332;10.118;2022-09-12T00:49:50;12.60;99.90
8892;DHT22;4482;54.332;10.118;2022-09-12T00:52:23;12.60;99.90
8892;DHT22;4482;54.332;10.118;2022-09-12T00:54:56;12.60;99.90
8892;DHT22;4482;54.332;10.118;2022-09-12T00:57:28;12.60;99.90
8892;DHT22;4482;54.332;10.118;2022-09-12T00:59:58;12.60;99.90
8892;DHT22;4482;54.332;10.118;2022-09-12T01:02:27;12.50;99.90
8892;DHT22;4482;54.332;10.118;2022-09-12T01:04:54;12.50;99.90
8892;DHT22;4482;54.332;10.118;2022-09-12T01:07:22;12.60;99.90
8892;DHT22;4482;54.332;10.118;2022-09-12T01:09:49;12.50;99.90
8892;DHT22;4482;54.332;10.118;2022-09-12T01:12:16;12.60;99.90
8892;DHT22;4482;54.332;10.118;2022-09-12T01:14:43;12.50;99.90
8892;DHT22;4482;54.332;10.118;2022-09-12T01:17:12;12.60;99.90
8892;DHT22;4482;54.332;10.118;2022-09-12T01:20:18;12.60;99.90
8892;DHT22;4482;54.332;10.118;2022-09-12T01:23:05;12.60;99.90
8892;DHT22;4482;54.332;10.118;2022-09-12T01:25:43;12.50;99.90
8892;DHT22;4482;54.332;10.118;2022-09-12T01:28:36;12.50;99.90
8892;DHT22;4482;54.332;10.118;2022-09-12T01:31:14;12.50;99.90
8892;DHT22;4482;54.332;10.118;2022-09-12T01:33:54;12.50;99.90
8892;DHT22;4482;54.332;10.118;2022-09-12T01:36:40;12.50;99.90
8892;DHT22;4482;54.332;10.118;2022-09-12T01:39:18;12.50;99.90
8892;DHT22;4482;54.332;10.118;2022-09-12T01:41:52;12.40;99.90
8892;DHT22;4482;54.332;10.118;2022-09-12T01:44:28;12.50;99.90
8892;DHT22;4482;54.332;10.118;2022-09-12T01:47:04;12.40;99.90
8892;DHT22;4482;54.332;10.118;2022-09-12T01:49:37;12.40;99.90
8892;DHT22;4482;54.332;10.118;2022-09-12T01:52:11;12.50;99.90
8892;DHT22;4482;54.332;10.118;2022-09-12T01:54:44;12.50;99.90
8892;DHT22;4482;54.332;10.118;2022-09-12T01:57:15;12.50;99.90
8892;DHT22;4482;54.332;10.118;2022-09-12T01:59:47;12.40;99.90
8892;DHT22;4482;54.332;10.118;2022-09-12T02:02:20;12.40;99.90
8892;DHT22;4482;54.332;10.118;2022-09-12T02:04:50;12.40;99.90
8892;DHT22;4482;54.332;10.118;2022-09-12T02:07:20;12.40;99.90
8892;DHT22;4482;54.332;10.118;2022-09-12T02:09:52;12.40;99.90
8892;DHT22;4482;54.332;10.118;2022-09-12T02:12:23;12.40;99.90
8892;DHT22;4482;54.332;10.118;2022-09-12T02:14:54;12.40;99.90
8892;DHT22;4482;54.332;10.118;2022-09-12T02:17:25;12.40;99.90
8892;DHT22;4482;54.332;10.118;2022-09-12T02:19:54;12.40;99.90
8892;DHT22;4482;54.332;10.118;2022-09-12T02:22:25;12.40;99.90
8892;DHT22;4482;54.332;10.118;2022-09-12T02:24:56;12.40;99.90
8892;DHT22;4482;54.332;10.118;2022-09-12T02:27:27;12.40;99.90
8892;DHT22;4482;54.332;10.118;2022-09-12T02:29:56;12.40;99.90
8892;DHT22;4482;54.332;10.118;2022-09-12T02:32:30;12.40;99.90
8892;DHT22;4482;54.332;10.118;2022-09-12T02:35:02;12.40;99.90
8892;DHT22;4482;54.332;10.118;2022-09-12T02:37:43;12.40;99.90
8892;DHT22;4482;54.332;10.118;2022-09-12T02:40:12;12.40;99.90
8892;DHT22;4482;54.332;10.118;2022-09-12T02:42:39;12.40;99.90
8892;DHT22;4482;54.332;10.118;2022-09-12T02:45:07;12.40;99.90
8892;DHT22;4482;54.332;10.118;2022-09-12T02:47:38;12.40;99.90
8892;DHT22;4482;54.332;10.118;2022-09-12T02:50:09;12.30;99.90
8892;DHT22;4482;54.332;10.118;2022-09-12T02:52:39;12.40;99.90
8892;DHT22;4482;54.332;10.118;2022-09-12T02:55:08;12.40;99.90
8892;DHT22;4482;54.332;10.118;2022-09-12T02:57:37;12.30;99.90
8892;DHT22;4482;54.332;10.118;2022-09-12T03:00:13;12.40;99.90
8892;DHT22;4482;54.332;10.118;2022-09-12T03:03:06;12.30;99.90
8892;DHT22;4482;54.332;10.118;2022-09-12T03:06:44;12.30;99.90
8892;DHT22;4482;54.332;10.118;2022-09-12T03:09:42;12.20;99.90
8892;DHT22;4482;54.332;10.118;2022-09-12T03:12:24;12.20;99.90
8892;DHT22;4482;54.332;10.118;2022-09-12T03:15:24;12.20;99.90
8892;DHT22;4482;54.332;10.118;2022-09-12T03:18:47;12.20;99.90
8892;DHT22;4482;54.332;10.118;2022-09-12T03:21:21;12.20;99.90
8892;DHT22;4482;54.332;10.118;2022-09-12T03:24:17;12.20;99.90
8892;DHT22;4482;54.332;10.118;2022-09-12T03:27:10;12.10;99.90
8892;DHT22;4482;54.332;10.118;2022-09-12T03:29:46;12.20;99.90
8892;DHT22;4482;54.332;10.118;2022-09-12T03:32:14;12.10;99.90
8892;DHT22;4482;54.332;10.118;2022-09-12T03:34:42;12.20;99.90
8892;DHT22;4482;54.332;10.118;2022-09-12T03:37:09;12.20;99.90
8892;DHT22;4482;54.332;10.118;2022-09-12T03:39:35;12.20;99.90
8892;DHT22;4482;54.332;10.118;2022-09-12T03:42:02;12.20;99.90
8892;DHT22;4482;54.332;10.118;2022-09-12T03:44:30;12.20;99.90
8892;DHT22;4482;54.332;10.118;2022-09-12T03:46:58;12.20;99.90
8892;DHT22;4482;54.332;10.118;2022-09-12T03:49:26;12.10;99.90
8892;DHT22;4482;54.332;10.118;2022-09-12T03:51:54;12.10;99.90
8892;DHT22;4482;54.332;10.118;2022-09-12T03:54:21;12.10;99.90
8892;DHT22;4482;54.332;10.118;2022-09-12T03:56:48;12.10;99.90
8892;DHT22;4482;54.332;10.118;2022-09-12T03:59:15;12.10;99.90
8892;DHT22;4482;54.332;10.118;2022-09-12T04:01:42;12.10;99.90
8892;DHT22;4482;54.332;10.118;2022-09-12T04:04:09;12.10;99.90
8892;DHT22;4482;54.332;10.118;2022-09-12T04:06:43;12.00;99.90
8892;DHT22;4482;54.332;10.118;2022-09-12T04:09:13;12.00;99.90
8892;DHT22;4482;54.332;10.118;2022-09-12T04:11:40;12.00;99.90
8892;DHT22;4482;54.332;10.118;2022-09-12T04:14:10;12.00;99.90
8892;DHT22;4482;54.332;10.118;2022-09-12T04:16:47;12.00;99.90
8892;DHT22;4482;54.332;10.118;2022-09-12T04:19:35;11.90;99.90
8892;DHT22;4482;54.332;10.118;2022-09-12T04:22:03;11.90;99.90
8892;DHT22;4482;54.332;10.118;2022-09-12T04:24:35;11.90;99.90
8892;DHT22;4482;54.332;10.118;2022-09-12T04:27:05;11.90;99.90
8892;DHT22;4482;54.332;10.118;2022-09-12T04:29:42;11.90;99.90
8892;DHT22;4482;54.332;10.118;2022-09-12T04:32:23;11.90;99.90
8892;DHT22;4482;54.332;10.118;2022-09-12T04:34:51;11.90;99.90
8892;DHT22;4482;54.332;10.118;2022-09-12T04:37:18;11.90;99.90
8892;DHT22;4482;54.332;10.118;2022-09-12T04:39:51;12.00;99.90
8892;DHT22;4482;54.332;10.118;2022-09-12T04:42:22;12.20;99.90
8892;DHT22;4482;54.332;10.118;2022-09-12T04:44:51;12.20;99.90
8892;DHT22;4482;54.332;10.118;2022-09-12T04:47:19;12.20;99.90
8892;DHT22;4482;54.332;10.118;2022-09-12T04:50:20;12.20;99.90
8892;DHT22;4482;54.332;10.118;2022-09-12T04:52:49;12.10;99.90
8892;DHT22;4482;54.332;10.118;2022-09-12T04:55:32;12.10;99.90
8892;DHT22;4482;54.332;10.118;2022-09-12T04:58:07;12.10;99.90
8892;DHT22;4482;54.332;10.118;2022-09-12T05:00:40;12.10;99.90
8892;DHT22;4482;54.332;10.118;2022-09-12T05:03:09;12.00;99.90
8892;DHT22;4482;54.332;10.118;2022-09-12T05:05:51;12.00;99.90
8892;DHT22;4482;54.332;10.118;2022-09-12T05:08:21;12.00;99.90
8892;DHT22;4482;54.332;10.118;2022-09-12T05:10:49;12.10;99.90
8892;DHT22;4482;54.332;10.118;2022-09-12T05:13:17;12.10;99.90
8892;DHT22;4482;54.332;10.118;2022-09-12T05:15:53;12.10;99.90
8892;DHT22;4482;54.332;10.118;2022-09-12T05:18:20;12.20;99.90
8892;DHT22;4482;54.332;10.118;2022-09-12T05:20:47;12.30;99.90
8892;DHT22;4482;54.332;10.118;2022-09-12T05:23:14;12.40;99.90
8892;DHT22;4482;54.332;10.118;2022-09-12T05:25:48;12.40;99.90
8892;DHT22;4482;54.332;10.118;2022-09-12T05:28:17;12.40;99.90
8892;DHT22;4482;54.332;10.118;2022-09-12T05:30:44;12.50;99.90
8892;DHT22;4482;54.332;10.118;2022-09-12T05:33:11;12.50;99.90
8892;DHT22;4482;54.332;10.118;2022-09-12T05:35:38;12.60;99.90
8892;DHT22;4482;54.332;10.118;2022-09-12T05:38:06;12.60;99.90
8892;DHT22;4482;54.332;10.118;2022-09-12T05:40:33;12.70;99.90
8892;DHT22;4482;54.332;10.118;2022-09-12T05:43:03;12.70;99.90
8892;DHT22;4482;54.332;10.118;2022-09-12T05:45:32;12.80;99.90
8892;DHT22;4482;54.332;10.118;2022-09-12T05:48:00;12.80;99.90
8892;DHT22;4482;54.332;10.118;2022-09-12T05:50:27;12.90;99.90
8892;DHT22;4482;54.332;10.118;2022-09-12T05:52:55;12.90;99.90
8892;DHT22;4482;54.332;10.118;2022-09-12T05:55:23;13.00;99.90
8892;DHT22;4482;54.332;10.118;2022-09-12T05:57:50;13.10;99.90
8892;DHT22;4482;54.332;10.118;2022-09-12T06:00:19;13.10;99.90
8892;DHT22;4482;54.332;10.118;2022-09-12T06:02:50;13.20;99.90
8892;DHT22;4482;54.332;10.118;2022-09-12T06:05:18;13.30;99.90
8892;DHT22;4482;54.332;10.118;2022-09-12T06:07:45;13.30;99.90
8892;DHT22;4482;54.332;10.118;2022-09-12T06:10:13;13.50;99.90
8892;DHT22;4482;54.332;10.118;2022-09-12T06:12:40;13.70;99.90
8892;DHT22;4482;54.332;10.118;2022-09-12T06:15:08;13.80;99.90
8892;DHT22;4482;54.332;10.118;2022-09-12T06:17:37;13.90;99.90
8892;DHT22;4482;54.332;10.118;2022-09-12T06:20:05;14.10;99.90
8892;DHT22;4482;54.332;10.118;2022-09-12T06:22:32;14.20;99.90
8892;DHT22;4482;54.332;10.118;2022-09-12T06:24:59;14.30;99.90
8892;DHT22;4482;54.332;10.118;2022-09-12T06:27:26;14.40;99.90
8892;DHT22;4482;54.332;10.118;2022-09-12T06:29:52;14.50;99.90
8892;DHT22;4482;54.332;10.118;2022-09-12T06:32:19;14.70;99.90
8892;DHT22;4482;54.332;10.118;2022-09-12T06:34:47;14.80;99.90
8892;DHT22;4482;54.332;10.118;2022-09-12T06:37:15;14.90;99.90
8892;DHT22;4482;54.332;10.118;2022-09-12T06:39:42;15.10;99.90
8892;DHT22;4482;54.332;10.118;2022-09-12T06:42:09;15.10;99.90
8892;DHT22;4482;54.332;10.118;2022-09-12T06:44:37;15.10;99.90
8892;DHT22;4482;54.332;10.118;2022-09-12T06:47:04;15.10;99.90
8892;DHT22;4482;54.332;10.118;2022-09-12T06:49:31;15.30;99.90
8892;DHT22;4482;54.332;10.118;2022-09-12T06:52:00;15.40;99.90
8892;DHT22;4482;54.332;10.118;2022-09-12T06:54:27;15.60;99.90
8892;DHT22;4482;54.332;10.118;2022-09-12T06:56:54;15.70;99.90
8892;DHT22;4482;54.332;10.118;2022-09-12T06:59:21;15.90;99.90
8892;DHT22;4482;54.332;10.118;2022-09-12T07:01:48;16.00;99.90
8892;DHT22;4482;54.332;10.118;2022-09-12T07:04:15;16.10;99.90
8892;DHT22;4482;54.332;10.118;2022-09-12T07:06:42;16.40;99.90
8892;DHT22;4482;54.332;10.118;2022-09-12T07:09:12;16.60;99.90
8892;DHT22;4482;54.332;10.118;2022-09-12T07:11:41;16.80;99.90
8892;DHT22;4482;54.332;10.118;2022-09-12T07:14:11;17.10;99.90
8892;DHT22;4482;54.332;10.118;2022-09-12T07:16:38;17.30;99.90
8892;DHT22;4482;54.332;10.118;2022-09-12T07:19:06;17.30;99.90
8892;DHT22;4482;54.332;10.118;2022-09-12T07:21:34;17.20;99.90
8892;DHT22;4482;54.332;10.118;2022-09-12T07:24:04;17.20;99.90
8892;DHT22;4482;54.332;10.118;2022-09-12T07:26:32;17.30;99.90
8892;DHT22;4482;54.332;10.118;2022-09-12T07:28:59;17.50;99.90
8892;DHT22;4482;54.332;10.118;2022-09-12T07:31:27;17.50;99.90
8892;DHT22;4482;54.332;10.118;2022-09-12T07:33:54;17.70;99.90
8892;DHT22;4482;54.332;10.118;2022-09-12T07:36:23;18.00;99.90
8892;DHT22;4482;54.332;10.118;2022-09-12T07:38:54;18.20;99.90
8892;DHT22;4482;54.332;10.118;2022-09-12T07:41:22;18.70;99.90
8892;DHT22;4482;54.332;10.118;2022-09-12T07:43:52;19.20;99.90
8892;DHT22;4482;54.332;10.118;2022-09-12T07:46:19;19.70;99.90
8892;DHT22;4482;54.332;10.118;2022-09-12T07:48:48;20.20;99.90
8892;DHT22;4482;54.332;10.118;2022-09-12T07:51:17;20.60;99.90
8892;DHT22;4482;54.332;10.118;2022-09-12T07:53:44;20.70;99.90
8892;DHT22;4482;54.332;10.118;2022-09-12T07:56:12;21.00;99.90
8892;DHT22;4482;54.332;10.118;2022-09-12T07:58:40;21.20;99.90
8892;DHT22;4482;54.332;10.118;2022-09-12T08:01:11;21.60;99.90
8892;DHT22;4482;54.332;10.118;2022-09-12T08:03:38;21.80;99.90
8892;DHT22;4482;54.332;10.118;2022-09-12T08:06:07;21.70;99.90
8892;DHT22;4482;54.332;10.118;2022-09-12T08:08:35;21.70;99.90
8892;DHT22;4482;54.332;10.118;2022-09-12T08:11:05;21.50;99.90
8892;DHT22;4482;54.332;10.118;2022-09-12T08:13:33;21.30;99.90
8892;DHT22;4482;54.332;10.118;2022-09-12T08:16:02;21.20;99.90
8892;DHT22;4482;54.332;10.118;2022-09-12T08:18:31;21.40;99.90
8892;DHT22;4482;54.332;10.118;2022-09-12T08:20:59;21.60;99.90
8892;DHT22;4482;54.332;10.118;2022-09-12T08:23:26;22.10;99.90
8892;DHT22;4482;54.332;10.118;2022-09-12T08:25:55;21.90;99.90
8892;DHT22;4482;54.332;10.118;2022-09-12T08:28:22;21.60;99.90
8892;DHT22;4482;54.332;10.118;2022-09-12T08:30:49;21.90;99.90
8892;DHT22;4482;54.332;10.118;2022-09-12T08:33:16;22.20;99.90
8892;DHT22;4482;54.332;10.118;2022-09-12T08:35:44;22.50;99.90
8892;DHT22;4482;54.332;10.118;2022-09-12T08:38:12;23.00;99.90
8892;DHT22;4482;54.332;10.118;2022-09-12T08:40:45;23.80;99.90
8892;DHT22;4482;54.332;10.118;2022-09-12T08:43:23;24.20;99.90
8892;DHT22;4482;54.332;10.118;2022-09-12T08:46:00;24.70;99.90
8892;DHT22;4482;54.332;10.118;2022-09-12T08:48:28;25.20;99.90
8892;DHT22;4482;54.332;10.118;2022-09-12T08:50:57;25.40;99.90
8892;DHT22;4482;54.332;10.118;2022-09-12T08:53:26;25.50;99.90
8892;DHT22;4482;54.332;10.118;2022-09-12T08:55:57;25.30;99.90
8892;DHT22;4482;54.332;10.118;2022-09-12T08:58:26;25.20;99.90
8892;DHT22;4482;54.332;10.118;2022-09-12T09:00:59;24.90;99.90
8892;DHT22;4482;54.332;10.118;2022-09-12T09:03:51;25.30;99.90
8892;DHT22;4482;54.332;10.118;2022-09-12T09:06:41;25.40;99.90
8892;DHT22;4482;54.332;10.118;2022-09-12T09:09:14;25.60;99.90
8892;DHT22;4482;54.332;10.118;2022-09-12T09:11:53;26.00;99.90
8892;DHT22;4482;54.332;10.118;2022-09-12T09:14:42;26.30;99.90
8892;DHT22;4482;54.332;10.118;2022-09-12T09:17:18;26.40;99.90
8892;DHT22;4482;54.332;10.118;2022-09-12T09:19:48;25.20;99.90
8892;DHT22;4482;54.332;10.118;2022-09-12T09:22:27;24.40;99.90
8892;DHT22;4482;54.332;10.118;2022-09-12T09:25:01;24.10;99.90
8892;DHT22;4482;54.332;10.118;2022-09-12T09:27:32;24.20;99.90
8892;DHT22;4482;54.332;10.118;2022-09-12T09:29:59;24.30;99.90
8892;DHT22;4482;54.332;10.118;2022-09-12T09:32:31;24.20;99.90
8892;DHT22;4482;54.332;10.118;2022-09-12T09:35:00;24.10;99.90
8892;DHT22;4482;54.332;10.118;2022-09-12T09:37:35;23.90;99.90
8892;DHT22;4482;54.332;10.118;2022-09-12T09:40:14;23.90;99.90
8892;DHT22;4482;54.332;10.118;2022-09-12T09:42:50;24.00;99.90
8892;DHT22;4482;54.332;10.118;2022-09-12T09:45:21;24.40;99.90
8892;DHT22;4482;54.332;10.118;2022-09-12T09:47:50;24.40;99.90
8892;DHT22;4482;54.332;10.118;2022-09-12T09:50:19;24.30;99.90
8892;DHT22;4482;54.332;10.118;2022-09-12T09:52:48;24.30;99.90
8892;DHT22;4482;54.332;10.118;2022-09-12T09:55:19;24.10;99.90
8892;DHT22;4482;54.332;10.118;2022-09-12T09:57:47;24.30;99.90
8892;DHT22;4482;54.332;10.118;2022-09-12T10:00:29;24.50;99.90
8892;DHT22;4482;54.332;10.118;2022-09-12T10:03:23;24.50;99.90
8892;DHT22;4482;54.332;10.118;2022-09-12T10:05:52;24.50;99.90
8892;DHT22;4482;54.332;10.118;2022-09-12T10:08:23;24.40;99.90
8892;DHT22;4482;54.332;10.118;2022-09-12T10:10:56;24.20;99.90
8892;DHT22;4482;54.332;10.118;2022-09-12T10:13:37;24.00;99.90
8892;DHT22;4482;54.332;10.118;2022-09-12T10:16:08;23.60;99.90
8892;DHT22;4482;54.332;10.118;2022-09-12T10:18:43;23.40;99.90
8892;DHT22;4482;54.332;10.118;2022-09-12T10:21:21;23.20;99.90
8892;DHT22;4482;54.332;10.118;2022-09-12T10:24:02;22.90;99.90
8892;DHT22;4482;54.332;10.118;2022-09-12T10:26:35;22.80;99.90
8892;DHT22;4482;54.332;10.118;2022-09-12T10:29:10;22.40;99.90
8892;DHT22;4482;54.332;10.118;2022-09-12T10:31:46;22.20;99.90
8892;DHT22;4482;54.332;10.118;2022-09-12T10:34:27;21.90;99.90
8892;DHT22;4482;54.332;10.118;2022-09-12T10:37:01;21.80;99.90
8892;DHT22;4482;54.332;10.118;2022-09-12T10:39:30;21.70;99.90
8892;DHT22;4482;54.332;10.118;2022-09-12T10:41:59;21.50;99.90
8892;DHT22;4482;54.332;10.118;2022-09-12T10:44:27;21.30;99.90
8892;DHT22;4482;54.332;10.118;2022-09-12T10:46:56;21.30;99.90
8892;DHT22;4482;54.332;10.118;2022-09-12T10:49:27;21.20;99.90
8892;DHT22;4482;54.332;10.118;2022-09-12T10:51:55;21.20;99.90
8892;DHT22;4482;54.332;10.118;2022-09-12T10:54:26;21.20;99.90
8892;DHT22;4482;54.332;10.118;2022-09-12T10:57:28;21.10;99.90
8892;DHT22;4482;54.332;10.118;2022-09-12T11:00:03;21.20;99.90
8892;DHT22;4482;54.332;10.118;2022-09-12T11:02:45;21.30;99.90
8892;DHT22;4482;54.332;10.118;2022-09-12T11:05:21;21.30;99.90
8892;DHT22;4482;54.332;10.118;2022-09-12T11:07:54;21.30;99.90
8892;DHT22;4482;54.332;10.118;2022-09-12T11:10:29;21.00;99.90
8892;DHT22;4482;54.332;10.118;2022-09-12T11:13:09;21.00;99.90
8892;DHT22;4482;54.332;10.118;2022-09-12T11:15:49;21.10;99.90
8892;DHT22;4482;54.332;10.118;2022-09-12T11:18:30;21.30;99.90
8892;DHT22;4482;54.332;10.118;2022-09-12T11:21:11;21.40;99.90
8892;DHT22;4482;54.332;10.118;2022-09-12T11:23:57;21.50;99.90
8892;DHT22;4482;54.332;10.118;2022-09-12T11:26:33;21.50;99.90
8892;DHT22;4482;54.332;10.118;2022-09-12T11:29:14;21.50;99.90
8892;DHT22;4482;54.332;10.118;2022-09-12T11:32:12;21.40;99.90
8892;DHT22;4482;54.332;10.118;2022-09-12T11:34:56;21.50;99.90
8892;DHT22;4482;54.332;10.118;2022-09-12T11:37:39;21.50;99.90
8892;DHT22;4482;54.332;10.118;2022-09-12T11:40:21;21.50;99.90
8892;DHT22;4482;54.332;10.118;2022-09-12T11:42:51;21.40;99.90
8892;DHT22;4482;54.332;10.118;2022-09-12T11:45:24;21.40;99.90
8892;DHT22;4482;54.332;10.118;2022-09-12T11:47:54;21.50;99.90
8892;DHT22;4482;54.332;10.118;2022-09-12T11:50:26;21.50;99.90
8892;DHT22;4482;54.332;10.118;2022-09-12T11:52:56;21.70;99.90
8892;DHT22;4482;54.332;10.118;2022-09-12T11:55:28;21.50;99.90
8892;DHT22;4482;54.332;10.118;2022-09-12T11:57:58;21.40;99.90
8892;DHT22;4482;54.332;10.118;2022-09-12T12:00:29;21.50;99.90
8892;DHT22;4482;54.332;10.118;2022-09-12T12:03:02;21.70;99.90
8892;DHT22;4482;54.332;10.118;2022-09-12T12:05:35;21.70;99.90
8892;DHT22;4482;54.332;10.118;2022-09-12T12:08:06;21.80;99.90
8892;DHT22;4482;54.332;10.118;2022-09-12T12:10:35;21.80;99.90
8892;DHT22;4482;54.332;10.118;2022-09-12T12:13:06;21.60;99.90
8892;DHT22;4482;54.332;10.118;2022-09-12T12:15:36;21.60;99.90
8892;DHT22;4482;54.332;10.118;2022-09-12T12:18:06;21.30;99.90
8892;DHT22;4482;54.332;10.118;2022-09-12T12:20:34;21.30;99.90
8892;DHT22;4482;54.332;10.118;2022-09-12T12:23:01;21.30;99.90
8892;DHT22;4482;54.332;10.118;2022-09-12T12:25:40;21.30;99.90
8892;DHT22;4482;54.332;10.118;2022-09-12T12:28:55;21.40;99.90
8892;DHT22;4482;54.332;10.118;2022-09-12T12:31:24;21.30;99.90
8892;DHT22;4482;54.332;10.118;2022-09-12T12:34:02;21.40;99.90
8892;DHT22;4482;54.332;10.118;2022-09-12T12:36:35;21.40;99.90
8892;DHT22;4482;54.332;10.118;2022-09-12T12:48:49;21.80;99.90
8892;DHT22;4482;54.332;10.118;2022-09-12T12:51:32;21.80;99.90
8892;DHT22;4482;54.332;10.118;2022-09-12T12:54:01;22.10;99.90
8892;DHT22;4482;54.332;10.118;2022-09-12T12:56:34;22.20;99.90
8892;DHT22;4482;54.332;10.118;2022-09-12T12:59:12;22.00;99.90
8892;DHT22;4482;54.332;10.118;2022-09-12T13:01:45;21.80;99.90
8892;DHT22;4482;54.332;10.118;2022-09-12T13:04:15;21.80;99.90
8892;DHT22;4482;54.332;10.118;2022-09-12T13:06:44;21.70;99.90
8892;DHT22;4482;54.332;10.118;2022-09-12T13:09:20;21.70;99.90
8892;DHT22;4482;54.332;10.118;2022-09-12T13:11:56;21.60;99.90
8892;DHT22;4482;54.332;10.118;2022-09-12T13:14:46;21.50;99.90
8892;DHT22;4482;54.332;10.118;2022-09-12T13:17:16;21.60;99.90
8892;DHT22;4482;54.332;10.118;2022-09-12T13:19:47;21.70;99.90
8892;DHT22;4482;54.332;10.118;2022-09-12T13:22:14;21.70;99.90
8892;DHT22;4482;54.332;10.118;2022-09-12T13:24:42;21.50;99.90
8892;DHT22;4482;54.332;10.118;2022-09-12T13:27:17;21.50;99.90
8892;DHT22;4482;54.332;10.118;2022-09-12T13:29:44;21.40;99.90
8892;DHT22;4482;54.332;10.118;2022-09-12T13:32:11;21.50;99.90
8892;DHT22;4482;54.332;10.118;2022-09-12T13:37:40;21.50;99.90
8892;DHT22;4482;54.332;10.118;2022-09-12T13:40:23;21.50;99.90
8892;DHT22;4482;54.332;10.118;2022-09-12T13:43:07;21.60;99.90
8892;DHT22;4482;54.332;10.118;2022-09-12T13:45:36;21.60;99.90
8892;DHT22;4482;54.332;10.118;2022-09-12T13:48:06;21.60;99.90
8892;DHT22;4482;54.332;10.118;2022-09-12T13:50:39;21.50;99.90
8892;DHT22;4482;54.332;10.118;2022-09-12T13:53:13;21.30;99.90
8892;DHT22;4482;54.332;10.118;2022-09-12T13:55:44;21.20;99.90
8892;DHT22;4482;54.332;10.118;2022-09-12T13:58:18;21.10;99.90
8892;DHT22;4482;54.332;10.118;2022-09-12T14:00:45;21.00;99.90
8892;DHT22;4482;54.332;10.118;2022-09-12T14:03:25;20.90;99.90
8892;DHT22;4482;54.332;10.118;2022-09-12T14:06:10;20.80;99.90
8892;DHT22;4482;54.332;10.118;2022-09-12T14:08:43;20.80;99.90
8892;DHT22;4482;54.332;10.118;2022-09-12T14:11:20;20.80;99.90
8892;DHT22;4482;54.332;10.118;2022-09-12T14:13:49;20.90;99.90
8892;DHT22;4482;54.332;10.118;2022-09-12T14:16:17;20.90;99.90
8892;DHT22;4482;54.332;10.118;2022-09-12T14:18:46;21.00;99.90
8892;DHT22;4482;54.332;10.118;2022-09-12T14:21:25;21.10;99.90
8892;DHT22;4482;54.332;10.118;2022-09-12T14:23:57;21.20;99.90
8892;DHT22;4482;54.332;10.118;2022-09-12T14:26:26;21.20;99.90
8892;DHT22;4482;54.332;10.118;2022-09-12T14:28:57;21.10;99.90
8892;DHT22;4482;54.332;10.118;2022-09-12T14:31:28;21.00;99.90
8892;DHT22;4482;54.332;10.118;2022-09-12T14:34:07;21.00;99.90
8892;DHT22;4482;54.332;10.118;2022-09-12T14:36:39;21.00;99.90
8892;DHT22;4482;54.332;10.118;2022-09-12T14:39:17;20.90;99.90
8892;DHT22;4482;54.332;10.118;2022-09-12T14:41:46;20.90;99.90
8892;DHT22;4482;54.332;10.118;2022-09-12T14:44:16;20.80;99.90
8892;DHT22;4482;54.332;10.118;2022-09-12T14:46:46;20.70;99.90
8892;DHT22;4482;54.332;10.118;2022-09-12T14:49:17;20.70;99.90
8892;DHT22;4482;54.332;10.118;2022-09-12T14:51:53;20.60;99.90
8892;DHT22;4482;54.332;10.118;2022-09-12T14:54:38;20.50;99.90
8892;DHT22;4482;54.332;10.118;2022-09-12T14:57:31;20.40;99.90
8892;DHT22;4482;54.332;10.118;2022-09-12T15:00:20;20.40;99.90
8892;DHT22;4482;54.332;10.118;2022-09-12T15:02:48;20.40;99.90
8892;DHT22;4482;54.332;10.118;2022-09-12T15:05:18;20.40;99.90
8892;DHT22;4482;54.332;10.118;2022-09-12T15:07:56;20.40;99.90
8892;DHT22;4482;54.332;10.118;2022-09-12T15:10:27;20.40;99.90
8892;DHT22;4482;54.332;10.118;2022-09-12T15:13:13;20.30;99.90
8892;DHT22;4482;54.332;10.118;2022-09-12T15:15:42;20.30;99.90
8892;DHT22;4482;54.332;10.118;2022-09-12T15:18:09;20.30;99.90
8892;DHT22;4482;54.332;10.118;2022-09-12T15:20:37;20.20;99.90
8892;DHT22;4482;54.332;10.118;2022-09-12T15:23:06;20.20;99.90
8892;DHT22;4482;54.332;10.118;2022-09-12T15:25:37;20.20;99.90
8892;DHT22;4482;54.332;10.118;2022-09-12T15:28:08;20.10;99.90
8892;DHT22;4482;54.332;10.118;2022-09-12T15:30:38;20.20;99.90
8892;DHT22;4482;54.332;10.118;2022-09-12T15:33:06;20.20;99.90
8892;DHT22;4482;54.332;10.118;2022-09-12T15:35:34;20.20;99.90
8892;DHT22;4482;54.332;10.118;2022-09-12T15:38:01;20.20;99.90
8892;DHT22;4482;54.332;10.118;2022-09-12T15:40:28;20.30;99.90
8892;DHT22;4482;54.332;10.118;2022-09-12T15:42:56;20.30;99.90
8892;DHT22;4482;54.332;10.118;2022-09-12T15:45:26;20.20;99.90
8892;DHT22;4482;54.332;10.118;2022-09-12T15:47:55;20.20;99.90
8892;DHT22;4482;54.332;10.118;2022-09-12T15:50:22;20.10;99.90
8892;DHT22;4482;54.332;10.118;2022-09-12T15:52:49;20.10;99.90
8892;DHT22;4482;54.332;10.118;2022-09-12T15:55:18;20.10;99.90
8892;DHT22;4482;54.332;10.118;2022-09-12T15:57:45;20.00;99.90
8892;DHT22;4482;54.332;10.118;2022-09-12T16:00:15;19.90;99.90
8892;DHT22;4482;54.332;10.118;2022-09-12T16:02:43;19.90;99.90
8892;DHT22;4482;54.332;10.118;2022-09-12T16:05:13;19.80;99.90
8892;DHT22;4482;54.332;10.118;2022-09-12T16:07:42;19.80;99.90
8892;DHT22;4482;54.332;10.118;2022-09-12T16:10:13;19.70;99.90
8892;DHT22;4482;54.332;10.118;2022-09-12T16:12:40;19.60;99.90
8892;DHT22;4482;54.332;10.118;2022-09-12T16:15:11;19.60;99.90
8892;DHT22;4482;54.332;10.118;2022-09-12T16:17:40;19.50;99.90
8892;DHT22;4482;54.332;10.118;2022-09-12T16:20:08;19.50;99.90
8892;DHT22;4482;54.332;10.118;2022-09-12T16:22:35;19.50;99.90
8892;DHT22;4482;54.332;10.118;2022-09-12T16:25:03;19.40;99.90
8892;DHT22;4482;54.332;10.118;2022-09-12T16:27:31;19.40;99.90
8892;DHT22;4482;54.332;10.118;2022-09-12T16:29:58;19.30;99.90